Time;durP1;ratioP1;P1;durP2;ratioP2;P2;SDS_P1;SDS_P2;PMS_P1;PMS_P2;Temp;Humidity;BMP_temperature;BMP_pressure;BME280_temperature;BME280_humidity;BME280_pressure;Samples;Min_cycle;Max_cycle;Signal;HPM_P1;HPM_P2
2023/12/20 00:00:20;;;;;;;8.15;1.17;;;5.80;99.90;;;;;;4994156;28;20041;-89
2023/12/20 00:02:46;;;;;;;4.03;0.82;;;5.80;99.90;;;;;;4994161;28;20077;-89
2023/12/20 00:05:13;;;;;;;4.88;0.90;;;5.90;99.90;;;;;;5009948;28;20407;-89
2023/12/20 00:07:40;;;;;;;4.80;1.10;;;6.00;99.90;;;;;;4994080;28;20488;-89
2023/12/20 00:10:05;;;;;;;3.80;1.05;;;6.00;99.90;;;;;;4993520;28;20088;-89
2023/12/20 00:12:31;;;;;;;9.35;0.77;;;6.00;99.90;;;;;;5010242;28;20068;-88
2023/12/20 00:14:57;;;;;;;4.28;1.00;;;6.00;99.90;;;;;;4993278;28;20643;-89
2023/12/20 00:17:23;;;;;;;6.97;1.17;;;6.10;99.90;;;;;;4993044;28;20064;-89
2023/12/20 00:19:48;;;;;;;7.10;1.65;;;6.10;99.90;;;;;;5010683;28;20096;-89
2023/12/20 00:22:14;;;;;;;5.20;1.20;;;6.10;99.90;;;;;;5009898;28;20037;-90
2023/12/20 00:24:39;;;;;;;3.92;0.88;;;6.00;99.90;;;;;;5010623;28;20666;-89
2023/12/20 00:27:05;;;;;;;5.97;1.45;;;6.00;99.90;;;;;;5009808;28;20048;-89
2023/12/20 00:29:30;;;;;;;3.75;0.88;;;6.00;99.90;;;;;;4993906;28;20067;-89
2023/12/20 00:31:56;;;;;;;9.55;1.45;;;6.00;99.90;;;;;;4996247;28;20080;-89
2023/12/20 00:34:22;;;;;;;3.50;1.08;;;6.10;99.90;;;;;;4996751;28;20037;-89
2023/12/20 00:36:47;;;;;;;6.35;1.00;;;6.10;99.90;;;;;;4996170;28;20072;-89
2023/12/20 00:39:13;;;;;;;7.47;1.00;;;6.10;99.90;;;;;;5012688;28;20076;-89
2023/12/20 00:41:38;;;;;;;4.88;0.85;;;6.10;99.90;;;;;;5014398;28;20037;-88
2023/12/20 00:44:04;;;;;;;7.68;1.15;;;6.10;99.90;;;;;;4997110;28;20048;-89
2023/12/20 00:46:30;;;;;;;8.43;1.50;;;6.10;99.90;;;;;;4996906;28;20412;-89
2023/12/20 00:48:56;;;;;;;7.75;1.05;;;6.10;99.90;;;;;;5013609;28;20132;-89
2023/12/20 00:51:22;;;;;;;1.95;0.60;;;6.00;99.90;;;;;;5013677;28;20121;-89
2023/12/20 00:53:50;;;;;;;17.17;0.73;;;6.00;99.90;;;;;;5013627;28;20052;-89
2023/12/20 00:56:15;;;;;;;4.70;0.68;;;5.90;99.90;;;;;;4998024;28;20111;-89
2023/12/20 00:58:41;;;;;;;8.20;1.38;;;5.90;99.90;;;;;;5013619;28;20045;-89
2023/12/20 01:01:06;;;;;;;3.40;0.93;;;5.90;99.90;;;;;;5013172;28;20037;-89
2023/12/20 01:03:32;;;;;;;7.13;1.73;;;5.80;99.90;;;;;;4997035;28;20059;-89
2023/12/20 01:05:58;;;;;;;10.13;1.25;;;5.80;99.90;;;;;;4996502;28;20120;-89
2023/12/20 01:08:23;;;;;;;4.63;1.27;;;5.70;99.90;;;;;;5013491;28;20041;-88
2023/12/20 01:10:49;;;;;;;8.57;1.95;;;5.70;99.90;;;;;;4997450;28;20408;-89
2023/12/20 01:13:14;;;;;;;9.00;2.45;;;5.60;99.90;;;;;;5012641;28;20077;-89
2023/12/20 01:15:40;;;;;;;8.32;2.78;;;5.60;99.90;;;;;;5013779;28;20515;-89
2023/12/20 01:18:06;;;;;;;6.43;1.20;;;5.60;99.90;;;;;;5012706;28;20582;-89
2023/12/20 01:20:31;;;;;;;8.57;1.20;;;5.70;99.90;;;;;;4996223;28;20042;-89
2023/12/20 01:22:57;;;;;;;2.35;0.70;;;5.70;99.90;;;;;;4996544;28;20080;-89
2023/12/20 01:25:23;;;;;;;8.32;1.40;;;5.70;99.90;;;;;;5012104;28;20033;-89
2023/12/20 01:27:48;;;;;;;7.38;1.48;;;5.70;99.90;;;;;;5013284;28;20041;-89
2023/12/20 01:30:15;;;;;;;3.67;1.00;;;5.70;99.90;;;;;;5013101;28;20555;-89
2023/12/20 01:32:40;;;;;;;4.22;1.00;;;5.70;99.90;;;;;;5012488;28;20175;-89
2023/12/20 01:35:06;;;;;;;5.45;1.55;;;5.80;99.90;;;;;;4996433;28;20129;-89
2023/12/20 01:37:31;;;;;;;8.25;1.20;;;5.80;99.90;;;;;;4996325;28;20053;-89
2023/12/20 01:39:58;;;;;;;7.45;0.98;;;5.80;99.90;;;;;;5012613;28;20041;-89
2023/12/20 01:42:24;;;;;;;3.90;1.33;;;5.80;99.90;;;;;;5012275;28;20037;-90
2023/12/20 01:44:49;;;;;;;2.50;0.73;;;5.80;99.90;;;;;;5011748;28;20042;-89
2023/12/20 01:47:16;;;;;;;13.63;2.45;;;5.90;99.90;;;;;;5012744;28;20044;-90
2023/12/20 01:49:41;;;;;;;3.00;0.65;;;5.80;99.90;;;;;;4995883;28;20040;-90
2023/12/20 01:52:08;;;;;;;6.22;1.25;;;5.90;99.90;;;;;;4996304;28;20049;-90
2023/12/20 01:54:34;;;;;;;3.10;0.73;;;5.90;99.90;;;;;;4996547;28;20616;-90
2023/12/20 01:57:00;;;;;;;5.10;1.48;;;5.90;99.90;;;;;;5012172;28;20504;-90
2023/12/20 01:59:26;;;;;;;11.40;1.65;;;5.90;99.90;;;;;;4996131;28;20048;-90
2023/12/20 02:01:52;;;;;;;9.13;0.70;;;5.90;99.90;;;;;;5013045;28;20422;-90
2023/12/20 02:04:17;;;;;;;10.85;1.65;;;5.80;99.90;;;;;;5011005;28;20514;-90
2023/12/20 02:06:45;;;;;;;14.02;2.22;;;5.80;99.90;;;;;;4996255;28;20045;-90
2023/12/20 02:09:11;;;;;;;6.72;0.95;;;5.80;99.90;;;;;;4995254;28;20081;-89
2023/12/20 02:11:37;;;;;;;4.15;1.17;;;5.80;99.90;;;;;;4996277;28;20081;-90
2023/12/20 02:14:03;;;;;;;14.20;2.17;;;5.80;99.90;;;;;;5011496;28;20068;-90
2023/12/20 02:16:28;;;;;;;4.20;1.08;;;5.80;99.90;;;;;;5012105;28;20075;-89
2023/12/20 02:18:54;;;;;;;5.32;1.20;;;5.80;99.90;;;;;;5012086;28;20450;-90
2023/12/20 02:21:34;;;;;;;6.55;1.48;;;5.80;99.90;;;;;;5011943;28;20030;-90
2023/12/20 02:24:00;;;;;;;7.88;2.15;;;5.90;99.90;;;;;;4995079;28;20029;-90
2023/12/20 02:26:26;;;;;;;9.38;1.50;;;5.90;99.90;;;;;;5012236;28;20459;-89
2023/12/20 02:28:52;;;;;;;9.32;2.05;;;6.00;99.90;;;;;;5009270;28;20080;-90
2023/12/20 02:31:22;;;;;;;6.20;1.77;;;6.00;99.90;;;;;;5011840;28;20563;-90
2023/12/20 02:33:47;;;;;;;13.63;1.17;;;6.00;99.90;;;;;;5011118;28;20512;-90
2023/12/20 02:36:13;;;;;;;5.60;0.90;;;6.10;99.90;;;;;;5011866;28;20080;-90
2023/12/20 02:38:39;;;;;;;11.52;0.85;;;6.10;99.90;;;;;;5012165;28;20045;-90
2023/12/20 02:41:04;;;;;;;7.05;1.27;;;6.20;99.90;;;;;;4994550;28;20152;-90
2023/12/20 02:43:30;;;;;;;14.13;1.17;;;6.20;99.90;;;;;;4994462;28;20542;-90
2023/12/20 02:45:55;;;;;;;8.00;1.75;;;6.20;99.90;;;;;;5011077;28;20137;-90
2023/12/20 02:48:21;;;;;;;4.28;0.63;;;6.30;99.90;;;;;;5011194;28;20045;-89
2023/12/20 02:50:48;;;;;;;6.78;1.17;;;6.30;99.90;;;;;;4995156;28;20531;-90
2023/12/20 02:53:14;;;;;;;5.22;1.65;;;6.30;99.90;;;;;;5010234;28;20045;-90
2023/12/20 02:55:40;;;;;;;5.90;0.68;;;6.40;99.90;;;;;;5011185;28;20029;-90
2023/12/20 02:58:05;;;;;;;0.43;0.30;;;6.40;99.90;;;;;;4995352;28;20077;-90
2023/12/20 03:00:31;;;;;;;6.18;1.08;;;6.40;99.90;;;;;;5011005;28;20095;-90
2023/12/20 03:02:57;;;;;;;5.28;0.88;;;6.40;99.90;;;;;;4995037;28;20041;-90
2023/12/20 03:05:22;;;;;;;3.72;0.80;;;6.40;99.90;;;;;;4994814;28;20117;-90
2023/12/20 03:07:48;;;;;;;7.50;1.77;;;6.50;99.90;;;;;;4994684;28;20515;-90
2023/12/20 03:10:13;;;;;;;2.55;0.57;;;6.50;99.90;;;;;;4995039;28;20099;-89
2023/12/20 03:12:39;;;;;;;11.07;2.47;;;6.50;99.90;;;;;;4994427;28;20044;-90
2023/12/20 03:15:05;;;;;;;4.00;0.98;;;6.50;99.90;;;;;;4995173;28;20052;-90
2023/12/20 03:17:31;;;;;;;7.07;1.80;;;6.50;99.90;;;;;;5011083;28;20562;-90
2023/12/20 03:19:56;;;;;;;4.28;1.10;;;6.50;99.90;;;;;;4994798;28;20125;-90
2023/12/20 03:22:22;;;;;;;5.38;0.93;;;6.50;99.90;;;;;;4993961;28;20030;-90
2023/12/20 03:24:47;;;;;;;8.75;1.48;;;6.50;99.90;;;;;;4994397;28;20037;-90
2023/12/20 03:27:13;;;;;;;2.67;0.60;;;6.50;99.90;;;;;;5011357;28;20492;-90
2023/12/20 03:29:38;;;;;;;6.53;1.30;;;6.50;99.90;;;;;;4993492;28;20033;-90
2023/12/20 03:32:04;;;;;;;8.38;1.55;;;6.50;99.90;;;;;;4994921;28;20041;-89
2023/12/20 03:34:30;;;;;;;4.78;0.63;;;6.50;99.90;;;;;;5010823;28;20100;-90
2023/12/20 03:36:56;;;;;;;9.50;1.98;;;6.50;99.90;;;;;;4993679;28;20736;-90
2023/12/20 03:39:21;;;;;;;10.48;2.25;;;6.50;99.90;;;;;;4994983;28;20045;-90
2023/12/20 03:41:47;;;;;;;7.90;1.45;;;6.40;99.90;;;;;;5010342;28;20040;-90
2023/12/20 03:44:12;;;;;;;5.45;1.50;;;6.40;99.90;;;;;;4994008;28;20080;-90
2023/12/20 03:46:38;;;;;;;9.00;1.48;;;6.40;99.90;;;;;;5011085;28;20037;-90
2023/12/20 03:49:03;;;;;;;3.90;1.27;;;6.40;99.90;;;;;;5010489;28;20492;-90
2023/12/20 03:51:29;;;;;;;7.15;1.50;;;6.40;99.90;;;;;;5011338;28;20078;-90
2023/12/20 03:53:55;;;;;;;9.23;1.80;;;6.40;99.90;;;;;;5010274;28;20704;-90
2023/12/20 03:56:20;;;;;;;11.52;1.73;;;6.40;99.90;;;;;;5010514;28;20038;-90
2023/12/20 03:58:46;;;;;;;11.07;1.70;;;6.50;99.90;;;;;;4994320;28;21025;-90
2023/12/20 04:01:12;;;;;;;7.13;1.00;;;6.50;99.90;;;;;;4994548;28;20063;-90
2023/12/20 04:03:38;;;;;;;16.15;4.53;;;6.50;99.90;;;;;;4993340;28;20048;-91
2023/12/20 04:06:04;;;;;;;7.72;1.48;;;6.50;99.90;;;;;;4998530;28;20128;-90
2023/12/20 04:08:29;;;;;;;14.80;4.30;;;6.40;99.90;;;;;;4997975;28;20189;-90
2023/12/20 04:10:55;;;;;;;11.80;2.55;;;6.40;99.90;;;;;;4998069;28;20042;-90
2023/12/20 04:13:21;;;;;;;11.75;2.25;;;6.40;99.90;;;;;;4998062;28;20037;-90
2023/12/20 04:15:46;;;;;;;6.55;1.95;;;6.40;99.90;;;;;;5013744;28;20050;-90
2023/12/20 04:18:12;;;;;;;7.50;1.45;;;6.40;99.90;;;;;;5013975;28;20041;-91
2023/12/20 04:20:37;;;;;;;16.60;2.50;;;6.40;99.90;;;;;;4997351;28;20052;-90
2023/12/20 04:23:03;;;;;;;3.72;1.35;;;6.40;99.90;;;;;;4997972;28;20040;-90
2023/12/20 04:25:29;;;;;;;3.42;0.80;;;6.50;99.90;;;;;;5014496;28;20099;-90
2023/12/20 04:27:54;;;;;;;9.77;1.60;;;6.50;99.90;;;;;;4997096;28;20040;-91
2023/12/20 04:30:20;;;;;;;9.07;2.13;;;6.50;99.90;;;;;;5014410;28;20038;-90
2023/12/20 04:32:45;;;;;;;7.55;1.77;;;6.60;99.90;;;;;;4997419;28;20052;-91
2023/12/20 04:35:11;;;;;;;11.68;1.20;;;6.70;99.90;;;;;;4993704;28;20041;-90
2023/12/20 04:37:36;;;;;;;10.73;1.85;;;6.70;99.90;;;;;;4997513;28;20444;-90
2023/12/20 04:40:02;;;;;;;8.35;1.77;;;6.70;99.90;;;;;;4997560;28;20037;-90
2023/12/20 04:42:28;;;;;;;6.05;1.42;;;6.70;99.90;;;;;;4997282;28;20096;-90
2023/12/20 04:44:53;;;;;;;12.82;2.03;;;6.70;99.90;;;;;;4996590;28;20516;-91
2023/12/20 04:47:19;;;;;;;13.63;3.03;;;6.70;99.90;;;;;;5014253;28;20040;-91
2023/12/20 04:49:45;;;;;;;9.27;2.60;;;6.70;99.90;;;;;;4996987;28;20087;-91
2023/12/20 04:52:10;;;;;;;11.98;1.95;;;6.70;99.90;;;;;;5014087;28;20040;-91
2023/12/20 04:54:36;;;;;;;8.95;1.75;;;6.70;99.90;;;;;;4997380;28;20049;-91
2023/12/20 04:57:01;;;;;;;4.70;1.08;;;6.80;99.90;;;;;;5012965;28;20068;-90
2023/12/20 04:59:27;;;;;;;7.18;3.10;;;6.80;99.90;;;;;;4997384;28;20072;-91
2023/12/20 05:01:52;;;;;;;7.22;1.70;;;6.80;99.90;;;;;;4996734;28;20041;-91
2023/12/20 05:04:18;;;;;;;5.85;1.30;;;6.90;99.90;;;;;;4996582;28;20033;-90
2023/12/20 05:06:44;;;;;;;14.85;1.70;;;6.90;99.90;;;;;;4997246;28;20475;-91
2023/12/20 05:09:09;;;;;;;7.22;1.80;;;6.90;99.90;;;;;;5012961;28;20045;-90
2023/12/20 05:11:35;;;;;;;9.25;1.65;;;6.90;99.90;;;;;;5013474;28;20037;-90
2023/12/20 05:14:00;;;;;;;15.43;1.90;;;7.00;99.90;;;;;;5012006;28;20049;-91
2023/12/20 05:16:26;;;;;;;14.00;2.50;;;6.90;99.90;;;;;;5012464;28;20049;-90
2023/12/20 05:18:52;;;;;;;10.05;1.75;;;6.90;99.90;;;;;;5013362;28;20539;-90
2023/12/20 05:21:18;;;;;;;11.90;1.52;;;7.00;99.90;;;;;;5012447;28;20069;-90
2023/12/20 05:23:44;;;;;;;6.43;1.90;;;7.00;99.90;;;;;;5012737;28;20155;-90
2023/12/20 05:26:09;;;;;;;10.82;2.25;;;7.00;99.90;;;;;;4996667;28;20445;-90
2023/12/20 05:28:35;;;;;;;7.93;2.38;;;7.00;99.90;;;;;;4996138;28;20849;-90
2023/12/20 05:31:00;;;;;;;9.65;1.60;;;7.00;99.90;;;;;;5013184;28;20048;-91
2023/12/20 05:33:26;;;;;;;11.95;2.65;;;7.00;99.90;;;;;;5012297;28;20037;-90
2023/12/20 05:35:52;;;;;;;10.00;2.17;;;7.00;99.90;;;;;;5012886;28;20221;-91
2023/12/20 05:38:17;;;;;;;18.25;2.30;;;7.00;99.90;;;;;;5013450;28;20127;-90
2023/12/20 05:40:43;;;;;;;9.90;1.98;;;7.00;99.90;;;;;;5005784;28;20497;-90
2023/12/20 05:43:08;;;;;;;6.35;1.23;;;7.00;99.90;;;;;;5011910;28;20037;-90
2023/12/20 05:45:34;;;;;;;12.65;3.10;;;7.00;99.90;;;;;;5014948;28;20034;-90
2023/12/20 05:48:00;;;;;;;7.53;1.50;;;7.10;99.90;;;;;;5012482;28;20025;-90
2023/12/20 05:50:25;;;;;;;17.90;2.85;;;7.10;99.90;;;;;;5002545;28;20048;-90
2023/12/20 05:52:51;;;;;;;6.32;1.38;;;7.00;99.90;;;;;;5015790;28;20045;-90
2023/12/20 05:55:16;;;;;;;7.85;1.48;;;7.10;99.90;;;;;;5015252;28;20403;-91
2023/12/20 05:57:43;;;;;;;5.18;0.80;;;7.10;99.90;;;;;;4999130;28;20041;-90
2023/12/20 06:00:09;;;;;;;5.93;2.25;;;7.10;99.90;;;;;;5014522;28;20045;-91
2023/12/20 06:02:36;;;;;;;3.75;1.13;;;7.10;99.90;;;;;;4995297;28;20041;-90
2023/12/20 06:05:03;;;;;;;6.40;1.60;;;7.10;99.90;;;;;;4996404;28;20512;-90
2023/12/20 06:07:29;;;;;;;6.93;1.65;;;7.20;99.90;;;;;;5011699;28;20057;-91
2023/12/20 06:09:55;;;;;;;8.50;1.17;;;7.20;99.90;;;;;;5011846;28;20149;-91
2023/12/20 06:12:20;;;;;;;9.75;2.00;;;7.20;99.90;;;;;;4995312;28;20111;-91
2023/12/20 06:14:46;;;;;;;10.15;1.15;;;7.20;99.90;;;;;;4995596;28;20045;-91
2023/12/20 06:17:11;;;;;;;11.63;2.50;;;7.20;99.90;;;;;;5011894;28;20042;-91
2023/12/20 06:19:37;;;;;;;11.48;2.35;;;7.30;99.90;;;;;;4995440;28;20643;-90
2023/12/20 06:22:03;;;;;;;10.70;2.15;;;7.30;99.90;;;;;;4995066;28;20064;-90
2023/12/20 06:24:29;;;;;;;9.30;2.30;;;7.30;99.90;;;;;;5011715;28;20037;-90
2023/12/20 06:26:55;;;;;;;10.60;2.00;;;7.30;99.90;;;;;;4995265;28;20045;-90
2023/12/20 06:29:21;;;;;;;9.60;2.25;;;7.30;99.90;;;;;;4995425;28;20048;-91
2023/12/20 06:31:46;;;;;;;11.15;2.45;;;7.30;99.90;;;;;;4994926;28;20045;-90
2023/12/20 06:34:12;;;;;;;7.00;1.48;;;7.30;99.90;;;;;;5011544;28;20040;-90
2023/12/20 06:36:37;;;;;;;12.50;1.77;;;7.30;99.90;;;;;;5011845;28;20041;-90
2023/12/20 06:39:04;;;;;;;9.57;3.15;;;7.40;99.90;;;;;;4994603;28;20038;-89
2023/12/20 06:41:30;;;;;;;6.97;1.75;;;7.40;99.90;;;;;;5011685;28;20130;-90
2023/12/20 06:43:55;;;;;;;5.97;1.75;;;7.40;99.90;;;;;;4994035;28;20504;-90
2023/12/20 06:46:21;;;;;;;6.25;1.15;;;7.40;99.90;;;;;;4995406;28;20048;-90
2023/12/20 06:48:47;;;;;;;5.68;0.88;;;7.40;99.90;;;;;;5011120;28;20026;-90
2023/12/20 06:51:15;;;;;;;6.50;1.50;;;7.40;99.90;;;;;;4995108;28;20042;-90
2023/12/20 06:53:41;;;;;;;16.20;2.97;;;7.40;99.90;;;;;;5011214;28;20045;-90
2023/12/20 06:56:07;;;;;;;13.65;2.00;;;7.40;99.90;;;;;;5010647;28;20048;-90
2023/12/20 06:58:33;;;;;;;9.98;1.83;;;7.40;99.90;;;;;;4995234;28;20124;-90
2023/12/20 07:00:58;;;;;;;14.50;2.50;;;7.40;99.90;;;;;;5010071;28;20085;-90
2023/12/20 07:03:24;;;;;;;5.13;1.30;;;7.40;99.90;;;;;;4994839;28;20072;-90
2023/12/20 07:05:49;;;;;;;18.90;2.30;;;7.40;99.90;;;;;;5011046;28;20034;-90
2023/12/20 07:08:15;;;;;;;7.97;1.83;;;7.40;99.90;;;;;;4993818;28;20520;-90
2023/12/20 07:10:41;;;;;;;8.40;1.90;;;7.50;99.90;;;;;;4994963;28;20041;-90
2023/12/20 07:13:07;;;;;;;8.65;2.15;;;7.50;99.90;;;;;;5010000;28;20049;-90
2023/12/20 07:15:33;;;;;;;4.72;1.27;;;7.50;99.90;;;;;;5011140;28;20087;-89
2023/12/20 07:18:00;;;;;;;8.32;1.60;;;7.50;99.90;;;;;;5010997;28;20041;-90
2023/12/20 07:20:26;;;;;;;6.57;1.58;;;7.50;99.90;;;;;;4994399;28;20125;-91
2023/12/20 07:22:51;;;;;;;8.32;1.40;;;7.50;99.90;;;;;;5010550;28;20124;-90
2023/12/20 07:25:17;;;;;;;4.47;0.63;;;7.60;99.90;;;;;;5010837;28;20091;-90
2023/12/20 07:27:43;;;;;;;6.22;1.55;;;7.60;99.90;;;;;;5010832;28;20455;-90
2023/12/20 07:30:09;;;;;;;11.10;2.03;;;7.60;99.90;;;;;;5010412;28;20064;-91
2023/12/20 07:32:34;;;;;;;12.90;2.53;;;7.60;99.90;;;;;;5010121;28;20038;-90
2023/12/20 07:35:00;;;;;;;8.57;1.67;;;7.60;99.90;;;;;;4994640;28;20118;-90
2023/12/20 07:37:26;;;;;;;14.20;2.40;;;7.60;99.90;;;;;;4993691;28;20084;-90
2023/12/20 07:39:51;;;;;;;7.43;1.13;;;7.70;99.90;;;;;;4993566;28;20041;-91
2023/12/20 07:42:17;;;;;;;6.65;1.30;;;7.70;99.90;;;;;;4994486;28;20033;-90
2023/12/20 07:44:42;;;;;;;6.65;1.58;;;7.70;99.90;;;;;;5009495;28;20449;-90
2023/12/20 07:47:08;;;;;;;8.48;1.65;;;7.70;99.90;;;;;;4994770;28;20033;-90
2023/12/20 07:49:34;;;;;;;6.97;1.00;;;7.60;99.90;;;;;;4993708;28;20076;-90
2023/12/20 07:51:59;;;;;;;6.60;1.80;;;7.70;99.90;;;;;;5010171;28;20045;-90
2023/12/20 07:54:25;;;;;;;5.05;1.67;;;7.70;99.90;;;;;;4994587;28;20044;-91
2023/12/20 07:56:50;;;;;;;17.52;2.85;;;7.70;99.90;;;;;;5011302;28;20077;-91
2023/12/20 07:59:16;;;;;;;10.90;2.80;;;7.70;99.90;;;;;;4994659;28;20715;-90
2023/12/20 08:01:42;;;;;;;5.80;1.30;;;7.70;99.90;;;;;;4994217;28;20029;-90
2023/12/20 08:04:08;;;;;;;21.30;2.53;;;7.70;99.90;;;;;;5010748;28;20053;-90
2023/12/20 08:06:33;;;;;;;10.68;1.85;;;7.70;99.90;;;;;;4994083;28;20037;-90
2023/12/20 08:08:59;;;;;;;5.93;1.42;;;7.70;99.90;;;;;;5009620;28;20034;-90
2023/12/20 08:11:24;;;;;;;8.25;1.70;;;7.70;99.90;;;;;;4994290;28;20034;-91
2023/12/20 08:13:51;;;;;;;11.18;1.95;;;7.70;99.90;;;;;;5009686;28;20045;-90
2023/12/20 08:16:17;;;;;;;10.73;1.85;;;7.80;99.90;;;;;;5010251;28;20033;-91
2023/12/20 08:18:43;;;;;;;14.18;3.45;;;7.80;99.90;;;;;;4993930;28;20117;-90
2023/12/20 08:21:08;;;;;;;11.00;2.63;;;7.80;99.90;;;;;;4993110;28;20124;-90
2023/12/20 08:23:35;;;;;;;16.20;2.40;;;7.80;99.90;;;;;;5009833;28;20037;-90
2023/12/20 08:26:05;;;;;;;6.63;1.65;;;7.80;99.90;;;;;;4992526;28;20034;-90
2023/12/20 08:28:31;;;;;;;7.07;1.63;;;7.80;99.90;;;;;;5008233;28;20139;-90
2023/12/20 08:30:56;;;;;;;9.82;1.67;;;7.80;99.90;;;;;;5009912;28;20516;-90
2023/12/20 08:33:22;;;;;;;10.27;2.42;;;7.80;99.90;;;;;;4993053;28;20042;-90
2023/12/20 08:35:48;;;;;;;9.00;2.08;;;7.90;99.90;;;;;;5009521;28;20077;-90
2023/12/20 08:38:14;;;;;;;12.35;2.90;;;7.90;99.90;;;;;;4993522;28;20100;-90
2023/12/20 08:40:39;;;;;;;11.50;1.85;;;7.90;99.90;;;;;;4993194;28;20124;-90
2023/12/20 08:43:05;;;;;;;6.18;1.33;;;7.90;99.90;;;;;;4993865;28;20091;-90
2023/12/20 08:45:31;;;;;;;11.38;1.52;;;7.90;99.90;;;;;;4993868;28;20492;-90
2023/12/20 08:47:56;;;;;;;10.10;2.22;;;8.00;99.90;;;;;;5010847;28;20043;-90
2023/12/20 08:50:22;;;;;;;14.70;3.08;;;8.00;99.90;;;;;;5010332;28;20625;-89
2023/12/20 08:52:47;;;;;;;7.28;1.65;;;8.00;99.90;;;;;;5012427;28;20044;-90
2023/12/20 08:55:14;;;;;;;19.95;3.88;;;8.00;99.90;;;;;;5013999;28;20691;-90
2023/12/20 08:57:40;;;;;;;9.32;2.03;;;8.00;99.90;;;;;;5013658;28;20056;-90
2023/12/20 09:00:07;;;;;;;6.05;1.70;;;8.10;99.90;;;;;;5013416;28;20049;-90
2023/12/20 09:02:35;;;;;;;12.52;3.00;;;8.10;99.90;;;;;;5013721;28;20045;-90
2023/12/20 09:05:02;;;;;;;6.28;2.15;;;8.10;99.90;;;;;;4996848;28;20129;-90
2023/12/20 09:07:30;;;;;;;16.63;2.50;;;8.10;99.90;;;;;;4997021;28;20075;-91
2023/12/20 09:09:56;;;;;;;6.00;1.38;;;8.10;99.90;;;;;;4996504;28;20034;-90
2023/12/20 09:12:22;;;;;;;6.45;1.33;;;8.20;99.90;;;;;;4996528;28;20482;-90
2023/12/20 09:14:49;;;;;;;8.07;1.27;;;8.20;99.90;;;;;;4996932;28;20034;-90
2023/12/20 09:17:16;;;;;;;10.48;2.65;;;8.20;99.90;;;;;;5013207;28;20412;-90
2023/12/20 09:19:43;;;;;;;14.30;2.35;;;8.30;99.90;;;;;;5012700;28;20042;-90
2023/12/20 09:22:09;;;;;;;12.30;1.63;;;8.30;99.90;;;;;;4996562;28;20076;-90
2023/12/20 09:24:35;;;;;;;11.40;1.52;;;8.30;99.90;;;;;;5012732;28;20072;-90
2023/12/20 09:27:01;;;;;;;6.43;1.17;;;8.30;99.90;;;;;;4997165;28;20072;-90
2023/12/20 09:29:26;;;;;;;8.98;3.70;;;8.30;99.90;;;;;;4995753;28;20766;-91
2023/12/20 09:31:52;;;;;;;12.40;1.83;;;8.40;99.90;;;;;;4996673;28;20044;-91
2023/12/20 09:34:17;;;;;;;19.75;2.85;;;8.40;99.90;;;;;;5012315;28;20041;-90
2023/12/20 09:36:46;;;;;;;7.30;1.20;;;8.40;99.90;;;;;;5012896;28;20064;-90
2023/12/20 09:39:19;;;;;;;12.68;1.95;;;8.40;99.90;;;;;;5012713;28;20091;-90
2023/12/20 09:41:48;;;;;;;5.85;1.42;;;8.40;99.90;;;;;;4996317;28;20029;-90
2023/12/20 09:44:19;;;;;;;3.60;1.10;;;8.40;99.90;;;;;;5003541;28;20041;-90
2023/12/20 09:46:49;;;;;;;6.30;1.40;;;8.40;99.90;;;;;;5012756;28;20036;-90
2023/12/20 09:49:18;;;;;;;2.95;0.65;;;8.40;99.90;;;;;;5013408;28;20120;-90
2023/12/20 09:51:46;;;;;;;8.27;3.17;;;8.50;99.90;;;;;;5012207;28;20036;-90
2023/12/20 09:54:14;;;;;;;4.57;1.30;;;8.60;99.90;;;;;;4988382;28;20049;-90
2023/12/20 09:56:39;;;;;;;5.65;1.38;;;8.60;99.90;;;;;;4996303;28;20034;-91
2023/12/20 09:59:05;;;;;;;6.10;1.80;;;8.60;99.90;;;;;;4995403;28;20099;-90
2023/12/20 10:01:31;;;;;;;8.07;1.20;;;8.60;99.90;;;;;;5012393;28;20470;-90
2023/12/20 10:03:58;;;;;;;8.50;1.38;;;8.50;99.90;;;;;;4995173;28;20048;-90
2023/12/20 10:06:24;;;;;;;7.90;2.10;;;8.50;99.90;;;;;;4995973;28;20045;-90
2023/12/20 10:08:49;;;;;;;4.75;1.55;;;8.40;99.90;;;;;;5012484;28;20038;-90
2023/12/20 10:11:15;;;;;;;7.03;1.77;;;8.20;99.90;;;;;;4995129;28;20511;-89
2023/12/20 10:13:42;;;;;;;8.95;1.83;;;7.70;99.90;;;;;;5011955;28;20052;-90
2023/12/20 10:16:08;;;;;;;7.13;0.93;;;7.60;99.90;;;;;;4994871;28;20065;-90
2023/12/20 10:18:34;;;;;;;6.90;1.33;;;7.50;99.90;;;;;;5012440;28;20041;-90
2023/12/20 10:21:00;;;;;;;5.65;0.90;;;7.50;99.90;;;;;;4996007;28;20033;-90
2023/12/20 10:23:26;;;;;;;6.25;1.33;;;7.50;99.90;;;;;;4993265;28;20107;-90
2023/12/20 10:25:59;;;;;;;7.32;1.55;;;7.60;99.90;;;;;;5009206;28;20467;-90
2023/12/20 10:28:28;;;;;;;7.97;1.85;;;7.60;99.90;;;;;;5010789;28;20037;-91
2023/12/20 10:30:57;;;;;;;4.93;1.10;;;7.60;99.90;;;;;;4995359;28;20045;-90
2023/12/20 10:33:34;;;;;;;5.43;1.05;;;7.60;99.90;;;;;;4993387;28;20034;-90
2023/12/20 10:36:00;;;;;;;7.57;1.83;;;7.60;99.90;;;;;;4995210;28;20128;-90
2023/12/20 10:38:26;;;;;;;8.65;1.27;;;7.50;99.90;;;;;;4994906;28;20120;-90
2023/12/20 10:41:00;;;;;;;6.07;1.05;;;7.50;99.90;;;;;;5010539;28;20091;-89
2023/12/20 10:43:28;;;;;;;1.35;0.30;;;7.40;99.90;;;;;;5007632;28;20034;-89
2023/12/20 10:45:54;;;;;;;3.50;0.98;;;7.40;99.90;;;;;;4994553;28;20544;-89
2023/12/20 10:48:22;;;;;;;3.35;1.13;;;7.30;99.90;;;;;;4994571;28;20048;-90
2023/12/20 10:50:48;;;;;;;4.03;0.98;;;7.20;99.90;;;;;;4992158;28;20037;-90
2023/12/20 10:53:16;;;;;;;5.70;0.68;;;7.20;99.90;;;;;;4994719;28;20087;-90
2023/12/20 10:55:44;;;;;;;4.88;1.00;;;7.10;99.90;;;;;;4994155;28;20124;-90
2023/12/20 10:58:10;;;;;;;1.75;0.45;;;7.10;99.90;;;;;;4995051;28;20544;-90
2023/12/20 11:00:45;;;;;;;2.92;0.77;;;7.10;99.90;;;;;;4994124;28;20152;-90
2023/12/20 11:03:12;;;;;;;2.05;0.52;;;7.10;99.90;;;;;;4994543;28;20034;-90
2023/12/20 11:05:56;;;;;;;3.03;0.70;;;7.10;99.90;;;;;;5011075;28;20048;-90
2023/12/20 11:08:47;;;;;;;4.95;0.88;;;7.10;99.90;;;;;;4993421;28;20436;-90
2023/12/20 11:11:37;;;;;;;4.47;0.80;;;7.10;99.90;;;;;;4991880;28;20072;-90
2023/12/20 11:14:08;;;;;;;5.00;2.20;;;7.20;99.90;;;;;;4993141;28;20084;-90
2023/12/20 11:16:37;;;;;;;3.30;0.40;;;7.20;99.90;;;;;;5002937;28;20072;-90
2023/12/20 11:19:06;;;;;;;3.53;0.50;;;7.20;99.90;;;;;;4989239;28;20041;-90
2023/12/20 11:21:31;;;;;;;2.55;0.52;;;7.30;99.90;;;;;;4994447;28;20065;-89
2023/12/20 11:23:57;;;;;;;3.60;0.73;;;7.30;99.90;;;;;;4992643;28;20045;-90
2023/12/20 11:26:28;;;;;;;4.63;0.70;;;7.30;99.90;;;;;;4991565;28;20029;-89
2023/12/20 11:28:54;;;;;;;10.75;0.90;;;7.30;99.90;;;;;;5008544;28;20115;-90
2023/12/20 11:31:19;;;;;;;4.15;1.08;;;7.30;99.90;;;;;;5009895;28;20096;-88
2023/12/20 11:33:48;;;;;;;2.97;0.63;;;7.30;99.90;;;;;;4991038;28;20037;-88
2023/12/20 11:36:18;;;;;;;1.08;0.38;;;7.30;99.90;;;;;;4994288;28;20120;-88
2023/12/20 11:38:57;;;;;;;7.18;0.80;;;7.30;99.90;;;;;;5010451;28;20033;-89
2023/12/20 11:41:24;;;;;;;3.63;0.73;;;7.40;99.90;;;;;;5010979;28;20038;-88
2023/12/20 11:43:53;;;;;;;4.75;0.63;;;7.40;99.90;;;;;;4993319;28;20058;-89
2023/12/20 11:46:18;;;;;;;3.20;0.45;;;7.40;99.90;;;;;;4993459;28;20073;-88
2023/12/20 11:48:45;;;;;;;0.85;0.70;;;7.40;99.90;;;;;;4994917;28;20102;-88
2023/12/20 11:51:11;;;;;;;6.03;0.77;;;7.40;99.90;;;;;;5010842;28;20037;-88
2023/12/20 11:53:37;;;;;;;1.35;0.50;;;7.50;99.90;;;;;;4993961;28;20103;-89
2023/12/20 11:56:05;;;;;;;5.53;2.55;;;7.50;99.90;;;;;;4994120;28;20049;-88
2023/12/20 11:58:31;;;;;;;4.45;1.00;;;7.50;99.90;;;;;;4994680;28;20068;-88
2023/12/20 12:00:56;;;;;;;4.43;0.75;;;7.50;99.90;;;;;;4994197;28;20038;-89
2023/12/20 12:03:23;;;;;;;2.25;0.93;;;7.50;99.90;;;;;;5009619;28;20116;-89
2023/12/20 12:05:49;;;;;;;4.13;0.73;;;7.50;99.90;;;;;;5009956;28;20500;-88
2023/12/20 12:08:16;;;;;;;7.43;1.95;;;7.40;99.90;;;;;;4993616;28;20061;-88
2023/12/20 12:10:41;;;;;;;4.50;0.73;;;7.40;99.90;;;;;;4995933;28;20025;-88
2023/12/20 12:13:07;;;;;;;4.03;0.98;;;7.40;99.90;;;;;;5013913;28;20064;-89
2023/12/20 12:15:33;;;;;;;3.88;0.88;;;7.40;99.90;;;;;;4996506;28;20116;-89
2023/12/20 12:17:59;;;;;;;4.45;0.93;;;7.40;99.90;;;;;;4997096;28;20083;-89
2023/12/20 12:20:25;;;;;;;3.65;1.00;;;7.50;99.90;;;;;;4996808;28;20034;-89
2023/12/20 12:23:04;;;;;;;3.00;0.77;;;7.50;99.90;;;;;;4994672;28;20040;-89
2023/12/20 12:25:31;;;;;;;3.60;0.73;;;7.50;99.90;;;;;;4995710;28;20477;-89
2023/12/20 12:28:01;;;;;;;4.88;0.90;;;7.50;99.90;;;;;;4997244;28;20048;-89
2023/12/20 12:30:27;;;;;;;11.43;1.40;;;7.60;99.90;;;;;;5013854;28;20505;-89
2023/12/20 12:32:53;;;;;;;4.50;0.63;;;7.60;99.90;;;;;;5012578;28;20041;-88
2023/12/20 12:35:19;;;;;;;4.65;0.75;;;7.60;99.90;;;;;;5013946;28;20045;-89
2023/12/20 12:37:45;;;;;;;4.97;1.05;;;7.60;99.90;;;;;;5013402;28;20046;-89
2023/12/20 12:40:13;;;;;;;5.80;0.93;;;7.60;99.90;;;;;;4996845;28;20048;-89
2023/12/20 12:42:40;;;;;;;6.35;1.13;;;7.60;99.90;;;;;;4996255;28;20492;-90
2023/12/20 12:45:07;;;;;;;3.10;0.40;;;7.50;99.90;;;;;;5013303;28;20057;-89
2023/12/20 12:47:33;;;;;;;6.28;1.42;;;7.50;99.90;;;;;;5014088;28;20471;-89
2023/12/20 12:49:59;;;;;;;5.25;1.20;;;7.50;99.90;;;;;;5014158;28;20041;-89